Cathlamet — WYR7641 — position and weather

sailwx.info

Track history (hours):
 
Tides and Currents Weather Stations Pressure Air Temp Water Temp Dewpoint Dewpoint Depression Visibility Wind Speed Wind Dir Waves Ship Positions

Cathlamet

Owner: WASHINGTON, STATE OF; Dept. of Transportation, OLYMPIA, WA. More information available from US FCC via Universal Licensing System and Coast Guard Vessel Documentation Center.

Last reported at 2017-Aug-16 21:29 UTC. Time now 2017-Aug-16 21:51 UTC.
Position N 47°58' W 122°21'.

Length 100 m; draft 4.7 m.

Type: Passenger vessel. MMSI: 366773070.

Date/timePositionNaut miles runAvg speedWind from/ knotsBaromVisibWave heightAir tempDewpointWater temp
2017-Aug-16 21:29N 47°58' W 122°21'2 4.8
2017-Aug-16 21:00N 47°57' W 122°18'2 3.5
2017-Aug-16 20:21N 47°58' W 122°21'2 6.9
2017-Aug-16 20:00N 47°57' W 122°18'2 4.0
2017-Aug-16 19:26N 47°58' W 122°21'2 5.5
2017-Aug-16 19:00N 47°57' W 122°18'2 4.0
2017-Aug-16 18:25N 47°58' W 122°21'2 5.6
2017-Aug-16 18:00N 47°57' W 122°18'2 4.6
2017-Aug-16 17:30N 47°58' W 122°21'2 4.7
2017-Aug-16 17:01N 47°57' W 122°18'2 4.6
2017-Aug-16 16:30N 47°58' W 122°21'2 4.7
2017-Aug-16 16:00N 47°57' W 122°18'2 4.0
2017-Aug-16 15:25N 47°58' W 122°21'2 5.6
2017-Aug-16 15:00N 47°57' W 122°18'2 4.6
2017-Aug-16 14:30N 47°58' W 122°21'2 4.6
2017-Aug-16 14:00N 47°57' W 122°18'2 4.6
2017-Aug-16 13:30N 47°58' W 122°21'2 4.7
2017-Aug-16 13:00N 47°57' W 122°18'2 4.5
2017-Aug-16 12:30N 47°58' W 122°21'2 4.7
2017-Aug-16 12:00N 47°57' W 122°18'2 0.3
2017-Aug-16 04:23N 47°59' W 122°21'2 6.2
2017-Aug-16 04:00N 47°57' W 122°18'2 4.7
2017-Aug-16 03:30N 47°58' W 122°21'2 4.7
2017-Aug-16 03:01N 47°57' W 122°18'2 4.0
2017-Aug-16 02:30N 47°58' W 122°21'1 2.6
2017-Aug-16 02:00N 47°58' W 122°19'0 0.9
2017-Aug-16 01:30N 47°57' W 122°20'0 0.8
2017-Aug-16 01:00N 47°58' W 122°19'1 1.3
2017-Aug-16 00:30N 47°58' W 122°20'1 2.6
2017-Aug-16 00:01N 47°57' W 122°18'2 3.9
2017-Aug-15 23:30N 47°58' W 122°21'2 4.4
2017-Aug-15 23:00N 47°57' W 122°18'2 4.6
2017-Aug-15 22:30N 47°58' W 122°21'2 4.7
2017-Aug-15 22:00N 47°57' W 122°18'2 4.5
2017-Aug-15 21:30N 47°58' W 122°21'2 4.8
2017-Aug-15 21:00N 47°57' W 122°18'2 4.4
2017-Aug-15 20:29N 47°58' W 122°21'2 4.9
2017-Aug-15 20:00N 47°57' W 122°18'2 3.8
2017-Aug-15 19:23N 47°58' W 122°21'2 5.9
2017-Aug-15 19:00N 47°57' W 122°18'2 3.5
2017-Aug-15 18:20N 47°58' W 122°21'2 7.2
2017-Aug-15 18:00N 47°57' W 122°18'2 3.4
2017-Aug-15 17:19N 47°58' W 122°21'2 7.3
2017-Aug-15 17:00N 47°57' W 122°18'2 3.4
2017-Aug-15 16:20N 47°58' W 122°21'2 7.2
2017-Aug-15 16:00N 47°57' W 122°18'2 4.6
2017-Aug-15 15:30N 47°58' W 122°21'2 4.6
2017-Aug-15 15:00N 47°57' W 122°18'2 4.6
2017-Aug-15 14:30N 47°58' W 122°21'2 4.5
2017-Aug-15 14:00N 47°57' W 122°18'2 4.4
2017-Aug-15 13:30N 47°58' W 122°21'2 4.7
2017-Aug-15 13:00N 47°57' W 122°18'2 3.6
2017-Aug-15 12:22N 47°58' W 122°21'2 6.4
2017-Aug-15 12:00N 47°57' W 122°18'2 4.7
2017-Aug-15 11:30N 47°59' W 122°21'0 0.0
2017-Aug-15 06:58N 47°59' W 122°21'0 0.1
2017-Aug-15 06:13N 47°59' W 122°21'0 0.0
2017-Aug-15 06:00N 47°59' W 122°21'0 0.0
2017-Aug-15 05:30N 47°59' W 122°21'0 0.1
2017-Aug-15 03:58N 47°59' W 122°21'2 5.3
2017-Aug-15 03:30N 47°57' W 122°18'2 4.7
2017-Aug-15 03:00N 47°58' W 122°21'2 4.6
2017-Aug-15 02:30N 47°57' W 122°18'2 4.6
2017-Aug-15 02:00N 47°58' W 122°21'2 4.6
2017-Aug-15 01:30N 47°57' W 122°18'2 4.5
2017-Aug-15 01:00N 47°58' W 122°21'2 4.8
2017-Aug-15 00:30N 47°57' W 122°18'1 2.5
2017-Aug-15 00:00N 47°58' W 122°20'0 0.9
2017-Aug-14 23:30N 47°57' W 122°20'1 2.5
2017-Aug-14 23:01N 47°57' W 122°18'2 4.5
2017-Aug-14 22:30N 47°58' W 122°21'2 4.7
2017-Aug-14 22:00N 47°57' W 122°18'2 4.6
2017-Aug-14 21:30N 47°58' W 122°21'2 4.7
2017-Aug-14 21:00N 47°57' W 122°18'2 4.6
2017-Aug-14 20:30N 47°58' W 122°21'2 4.7
2017-Aug-14 20:00N 47°57' W 122°18'2 4.6
2017-Aug-14 19:31N 47°58' W 122°21'2 4.6
2017-Aug-14 19:01N 47°57' W 122°18'2 4.5
2017-Aug-14 18:30N 47°58' W 122°21'2 4.8
2017-Aug-14 18:00N 47°57' W 122°18'2 4.6
2017-Aug-14 17:31N 47°58' W 122°21'2 4.6
2017-Aug-14 17:00N 47°57' W 122°18'2 4.6
2017-Aug-14 16:30N 47°58' W 122°21'2 4.7
2017-Aug-14 16:01N 47°57' W 122°18'2 4.6
2017-Aug-14 15:30N 47°58' W 122°21'2 4.7
2017-Aug-14 15:00N 47°57' W 122°18'2 4.3
2017-Aug-14 14:28N 47°58' W 122°21'2 4.9
2017-Aug-14 14:00N 47°57' W 122°18'2 3.3
2017-Aug-14 13:19N 47°58' W 122°21'2 7.5
2017-Aug-14 13:00N 47°57' W 122°18'2 4.4
2017-Aug-14 12:29N 47°58' W 122°21'2 4.9
2017-Aug-14 12:00N 47°57' W 122°18'2 2.9
2017-Aug-14 11:13N 47°58' W 122°21'0 0.0
2017-Aug-14 11:00N 47°58' W 122°21'0 0.0
2017-Aug-14 10:30N 47°58' W 122°21'0 0.0
2017-Aug-14 10:00N 47°58' W 122°21'0 0.0
2017-Aug-14 09:27N 47°58' W 122°21'0 0.0
2017-Aug-14 08:53N 47°58' W 122°21'0 0.0
2017-Aug-14 08:26N 47°58' W 122°21'2 5.4
2017-Aug-14 08:00N 47°57' W 122°18'2 4.7
2017-Aug-14 07:30N 47°58' W 122°21'2 4.6
2017-Aug-14 07:00N 47°57' W 122°18'2 4.2
2017-Aug-14 06:28N 47°58' W 122°21'2 5.0
2017-Aug-14 06:00N 47°57' W 122°18'2 4.5
2017-Aug-14 05:30N 47°58' W 122°21'2 4.7
2017-Aug-14 05:00N 47°57' W 122°18'2 4.5
2017-Aug-14 04:29N 47°58' W 122°21'2 4.8
2017-Aug-14 04:01N 47°57' W 122°18'2 4.4
2017-Aug-14 03:29N 47°58' W 122°21'2 4.9
2017-Aug-14 03:01N 47°57' W 122°18'2 4.6
2017-Aug-14 02:30N 47°58' W 122°21'2 4.7
2017-Aug-14 02:00N 47°57' W 122°18'2 4.2
2017-Aug-14 01:27N 47°58' W 122°21'2 5.2
2017-Aug-14 01:00N 47°57' W 122°18'2 4.3
2017-Aug-14 00:28N 47°58' W 122°21'2 5.1
2017-Aug-14 00:01N 47°57' W 122°18'2 3.9
2017-Aug-13 23:24N 47°58' W 122°21'2 5.8
2017-Aug-13 23:00N 47°57' W 122°18'2 4.5
2017-Aug-13 22:29N 47°58' W 122°21'2 4.8
2017-Aug-13 22:00N 47°57' W 122°18'2 4.7
2017-Aug-13 21:30N 47°58' W 122°21'2 4.6
2017-Aug-13 21:00N 47°57' W 122°18'2 4.6
2017-Aug-13 20:30N 47°58' W 122°21'2 4.6
2017-Aug-13 19:59N 47°57' W 122°18'2 4.8
2017-Aug-13 19:30N 47°58' W 122°21'2 4.7
2017-Aug-13 19:00N 47°57' W 122°18'2 4.7
2017-Aug-13 18:31N 47°58' W 122°21'2 4.6
2017-Aug-13 18:00N 47°57' W 122°18'2 4.7
2017-Aug-13 17:30N 47°58' W 122°21'2 4.7
2017-Aug-13 17:00N 47°57' W 122°18'2 4.6
2017-Aug-13 16:30N 47°58' W 122°21'2 4.7
2017-Aug-13 16:00N 47°57' W 122°18'2 4.6
2017-Aug-13 15:30N 47°58' W 122°21'2 4.6
2017-Aug-13 15:00N 47°57' W 122°18'2 4.6
2017-Aug-13 14:30N 47°58' W 122°21'2 4.6
2017-Aug-13 14:00N 47°57' W 122°18'2 4.5
2017-Aug-13 13:30N 47°58' W 122°21'2 4.7
2017-Aug-13 13:00N 47°57' W 122°18'2 4.6
2017-Aug-13 12:30N 47°58' W 122°21'0 0.0
2017-Aug-13 12:00N 47°58' W 122°21'0 0.0
2017-Aug-13 11:26N 47°58' W 122°21'0 0.0
2017-Aug-13 10:59N 47°58' W 122°21'0 0.0
2017-Aug-13 09:16N 47°58' W 122°21'2 8.8
2017-Aug-13 09:01N 47°57' W 122°18'2 4.4
2017-Aug-13 08:30N 47°58' W 122°21'2 4.7
2017-Aug-13 08:00N 47°57' W 122°18'2 4.7
2017-Aug-13 07:31N 47°58' W 122°21'2 4.6
2017-Aug-13 07:00N 47°57' W 122°18'2 4.6
2017-Aug-13 06:30N 47°58' W 122°21'2 4.7
2017-Aug-13 06:00N 47°57' W 122°18'2 4.4
2017-Aug-13 05:29N 47°58' W 122°21'2 4.9
2017-Aug-13 05:00N 47°57' W 122°18'2 4.7
2017-Aug-13 04:31N 47°58' W 122°21'2 4.6
2017-Aug-13 04:00N 47°57' W 122°18'2 4.4
2017-Aug-13 03:30N 47°58' W 122°21'2 4.4
2017-Aug-13 03:01N 47°57' W 122°18'2 3.9
2017-Aug-13 02:30N 47°58' W 122°21'1 2.7
2017-Aug-13 02:00N 47°58' W 122°19'1 2.8
2017-Aug-13 01:30N 47°58' W 122°21'2 4.0
2017-Aug-13 01:00N 47°57' W 122°18'2 4.4
2017-Aug-13 00:30N 47°58' W 122°21'2 4.6
2017-Aug-13 00:01N 47°57' W 122°18'2 4.6
2017-Aug-12 23:30N 47°58' W 122°21'2 4.6
2017-Aug-12 23:00N 47°57' W 122°18'2 4.6
2017-Aug-12 22:30N 47°58' W 122°21'2 4.7
2017-Aug-12 22:00N 47°57' W 122°18'2 4.6
2017-Aug-12 21:30N 47°58' W 122°21'2 4.7
2017-Aug-12 21:00N 47°57' W 122°18'2 4.6
2017-Aug-12 20:30N 47°58' W 122°21'2 4.7
2017-Aug-12 20:00N 47°57' W 122°18'2 4.6
2017-Aug-12 19:30N 47°58' W 122°21'2 4.6
2017-Aug-12 19:00N 47°57' W 122°18'2 4.7
2017-Aug-12 18:31N 47°58' W 122°21'2 4.6
2017-Aug-12 18:00N 47°57' W 122°18'2 4.6
2017-Aug-12 17:30N 47°58' W 122°21'2 4.7
2017-Aug-12 17:00N 47°57' W 122°18'2 4.6
2017-Aug-12 16:30N 47°58' W 122°21'2 4.7
2017-Aug-12 16:01N 47°57' W 122°18'2 4.6
2017-Aug-12 15:30N 47°58' W 122°21'2 4.6
2017-Aug-12 15:00N 47°57' W 122°18'2 4.7
2017-Aug-12 14:30N 47°58' W 122°21'2 4.5
2017-Aug-12 14:00N 47°57' W 122°18'2 4.5
2017-Aug-12 13:30N 47°58' W 122°21'2 4.7
2017-Aug-12 13:01N 47°57' W 122°18'2 4.5
2017-Aug-12 12:30N 47°58' W 122°21'0 0.0
2017-Aug-12 11:56N 47°58' W 122°21'0 0.0
2017-Aug-12 09:28N 47°58' W 122°21'2 5.0
2017-Aug-12 09:00N 47°57' W 122°18'2 4.5
2017-Aug-12 08:30N 47°58' W 122°21'2 4.8
2017-Aug-12 08:00N 47°57' W 122°18'2 4.6
2017-Aug-12 07:30N 47°58' W 122°21'0 0.0
2017-Aug-12 07:00N 47°58' W 122°21'2 4.7
2017-Aug-12 06:30N 47°57' W 122°18'2 4.6
2017-Aug-12 06:00N 47°58' W 122°21'2 4.7
2017-Aug-12 05:30N 47°57' W 122°18'2 4.3
2017-Aug-12 04:59N 47°58' W 122°21'2 4.7
2017-Aug-12 04:30N 47°57' W 122°18'2 4.2
2017-Aug-12 03:57N 47°58' W 122°21'2 5.1
2017-Aug-12 03:30N 47°57' W 122°18'2 4.0
2017-Aug-12 02:56N 47°58' W 122°21'2 5.5
2017-Aug-12 02:31N 47°57' W 122°18'2 4.6
2017-Aug-12 02:01N 47°58' W 122°21'2 4.6
2017-Aug-12 01:30N 47°57' W 122°18'2 4.4
2017-Aug-12 00:59N 47°58' W 122°21'2 4.9
2017-Aug-12 00:30N 47°57' W 122°18'2 3.1
2017-Aug-11 23:46N 47°58' W 122°21'2 9.3
2017-Aug-11 23:30N 47°57' W 122°18'2 4.5
2017-Aug-11 23:00N 47°58' W 122°21'0 0.1
2017-Aug-11 22:30N 47°58' W 122°21'2 4.7
2017-Aug-11 22:00N 47°57' W 122°18'2 4.6
2017-Aug-11 21:30N 47°58' W 122°21'2 4.7
2017-Aug-11 21:00N 47°57' W 122°18'2 4.7
2017-Aug-11 20:31N 47°58' W 122°21'2 4.6
2017-Aug-11 20:00N 47°57' W 122°18'2 4.6
2017-Aug-11 19:30N 47°58' W 122°21'2 4.6
2017-Aug-11 19:00N 47°57' W 122°18'2 4.6
2017-Aug-11 18:30N 47°58' W 122°21'2 4.7
2017-Aug-11 18:00N 47°57' W 122°18'2 4.5
2017-Aug-11 17:30N 47°58' W 122°21'2 4.8
2017-Aug-11 17:00N 47°57' W 122°18'2 4.0
2017-Aug-11 16:26N 47°58' W 122°21'2 5.5
2017-Aug-11 16:00N 47°57' W 122°18'2 3.9
2017-Aug-11 15:25N 47°58' W 122°21'2 5.5
2017-Aug-11 15:00N 47°57' W 122°18'2 4.4
2017-Aug-11 14:28N 47°58' W 122°21'0 0.0
2017-Aug-11 13:30N 47°58' W 122°21'2 4.7
2017-Aug-11 13:01N 47°57' W 122°18'2 4.6
2017-Aug-11 12:30N 47°58' W 122°21'2 4.6
2017-Aug-11 12:00N 47°57' W 122°18'2 3.5
2017-Aug-11 11:19N 47°59' W 122°21'0 0.0
2017-Aug-11 10:48N 47°59' W 122°21'0 0.0
2017-Aug-11 10:30N 47°59' W 122°21'0 0.0
2017-Aug-11 09:59N 47°59' W 122°21'0 0.0
2017-Aug-11 08:32N 47°59' W 122°21'0 0.0
2017-Aug-11 08:30N 47°59' W 122°21'0 0.1
2017-Aug-11 08:00N 47°59' W 122°21'0 0.1
2017-Aug-11 07:30N 47°59' W 122°21'0 0.0
2017-Aug-11 06:19N 47°59' W 122°21'0 1.6
2017-Aug-11 06:00N 47°59' W 122°21'1 1.4
2017-Aug-11 05:30N 47°58' W 122°21'2 4.0
2017-Aug-11 05:00N 47°57' W 122°18'2 4.3
2017-Aug-11 04:30N 47°58' W 122°21'2 4.3
2017-Aug-11 04:00N 47°57' W 122°18'2 3.0
2017-Aug-11 03:17N 47°58' W 122°21'2 7.6
2017-Aug-11 03:00N 47°57' W 122°18'1 2.6
2017-Aug-11 02:30N 47°58' W 122°20'0 0.8
2017-Aug-11 02:00N 47°58' W 122°20'1 2.5
2017-Aug-11 01:30N 47°57' W 122°18'2 2.9
2017-Aug-11 00:53N 47°58' W 122°21'2 4.9
2017-Aug-11 00:30N 47°57' W 122°18'2 3.8
2017-Aug-10 23:53N 47°58' W 122°21'2 6.2
2017-Aug-10 23:30N 47°57' W 122°18'1 1.2
2017-Aug-10 23:00N 47°58' W 122°19'1 2.5
2017-Aug-10 22:29N 47°58' W 122°21'2 3.7
2017-Aug-10 22:00N 47°57' W 122°18'2 4.1
2017-Aug-10 21:27N 47°58' W 122°21'2 5.3
2017-Aug-10 21:00N 47°57' W 122°18'2 4.6
2017-Aug-10 20:30N 47°58' W 122°21'2 4.7
2017-Aug-10 20:00N 47°57' W 122°18'2 3.9
2017-Aug-10 19:25N 47°58' W 122°21'2 5.6
2017-Aug-10 19:00N 47°57' W 122°18'2 3.2
2017-Aug-10 18:16N 47°58' W 122°21'2 9.0
2017-Aug-10 18:00N 47°57' W 122°18'2 3.5
2017-Aug-10 17:21N 47°58' W 122°21'2 6.9
2017-Aug-10 17:00N 47°57' W 122°18'2 3.1
2017-Aug-10 16:16N 47°58' W 122°21'2 9.2
2017-Aug-10 16:01N 47°57' W 122°18'2 3.5
2017-Aug-10 15:21N 47°58' W 122°21'2 6.7
2017-Aug-10 15:00N 47°57' W 122°18'2 3.2
2017-Aug-10 14:18N 47°58' W 122°21'0 0.0
2017-Aug-10 13:17N 47°58' W 122°21'2 8.2
2017-Aug-10 13:00N 47°57' W 122°18'2 3.4
2017-Aug-10 12:21N 47°58' W 122°21'2 6.9
2017-Aug-10 12:00N 47°57' W 122°18'2 4.6
2017-Aug-10 11:30N 47°58' W 122°21'0 0.0
2017-Aug-10 10:53N 47°58' W 122°21'0 0.0
2017-Aug-10 10:04N 47°58' W 122°21'0 0.0
2017-Aug-10 09:57N 47°58' W 122°21'0 0.0
2017-Aug-10 09:28N 47°58' W 122°21'0 0.0
2017-Aug-10 08:47N 47°58' W 122°21'0 0.0
2017-Aug-10 08:22N 47°58' W 122°21'2 6.5
2017-Aug-10 08:01N 47°57' W 122°18'2 3.9
2017-Aug-10 07:25N 47°58' W 122°21'2 5.6
2017-Aug-10 07:00N 47°57' W 122°18'2 4.4
2017-Aug-10 06:30N 47°58' W 122°21'2 4.8
2017-Aug-10 06:00N 47°57' W 122°18'2 4.6
2017-Aug-10 05:30N 47°58' W 122°21'2 4.6
2017-Aug-10 05:00N 47°57' W 122°18'2 3.9
2017-Aug-10 04:25N 47°58' W 122°21'0 0.0
2017-Aug-10 04:00N 47°58' W 122°21'2 4.7
2017-Aug-10 03:30N 47°57' W 122°18'1 1.0
2017-Aug-10 03:00N 47°57' W 122°19'0 0.7
2017-Aug-10 02:30N 47°57' W 122°19'0 0.8
2017-Aug-10 02:00N 47°58' W 122°19'2 3.0
2017-Aug-10 01:30N 47°58' W 122°21'2 4.1
2017-Aug-10 01:01N 47°57' W 122°18'2 4.4
2017-Aug-10 00:29N 47°58' W 122°21'2 4.9
2017-Aug-10 00:00N 47°57' W 122°18'2 3.8
2017-Aug-09 23:24N 47°58' W 122°21'2 5.6
2017-Aug-09 22:59N 47°57' W 122°18'2 4.2
2017-Aug-09 22:26N 47°58' W 122°21'2 5.5
2017-Aug-09 22:00N 47°57' W 122°18'2 4.6
2017-Aug-09 21:30N 47°58' W 122°21'2 4.7
2017-Aug-09 21:00N 47°57' W 122°18'2 4.6
2017-Aug-09 20:30N 47°58' W 122°21'2 4.7
2017-Aug-09 20:00N 47°57' W 122°18'2 4.6
2017-Aug-09 19:30N 47°58' W 122°21'2 4.6
2017-Aug-09 19:00N 47°57' W 122°18'2 4.6
2017-Aug-09 18:30N 47°58' W 122°21'2 4.7
2017-Aug-09 18:00N 47°57' W 122°18'2 4.4
2017-Aug-09 17:29N 47°58' W 122°21'2 4.9
2017-Aug-09 17:00N 47°57' W 122°18'2 3.3
2017-Aug-09 16:18N 47°58' W 122°21'2 7.9
2017-Aug-09 16:00N 47°57' W 122°18'2 4.1
2017-Aug-09 15:26N 47°58' W 122°21'2 5.3
2017-Aug-09 15:00N 47°57' W 122°18'2 3.1
2017-Aug-09 14:16N 47°58' W 122°21'2 8.6
2017-Aug-09 14:00N 47°57' W 122°18'2 3.1
2017-Aug-09 13:17N 47°58' W 122°21'2 8.3
2017-Aug-09 13:00N 47°57' W 122°18'2 3.5
2017-Aug-09 12:21N 47°58' W 122°21'2 6.6
2017-Aug-09 12:00N 47°57' W 122°18'2 3.8
2017-Aug-09 11:23N 47°59' W 122°21'0 0.0
2017-Aug-09 10:47N 47°59' W 122°21'0 0.0
2017-Aug-09 10:29N 47°59' W 122°21'0 0.0
2017-Aug-09 10:00N 47°59' W 122°21'0 0.0
2017-Aug-09 09:30N 47°59' W 122°21'0 0.0
2017-Aug-09 08:56N 47°59' W 122°21'0 0.0
2017-Aug-09 08:30N 47°59' W 122°21'0 0.0
2017-Aug-09 08:00N 47°59' W 122°21'0 0.0
2017-Aug-09 05:33N 47°59' W 122°21'0 0.8
2017-Aug-09 05:30N 47°59' W 122°21'0 0.0
2017-Aug-09 04:02N 47°59' W 122°21'0 0.5
2017-Aug-09 04:00N 47°59' W 122°21'2 4.9
2017-Aug-09 03:30N 47°57' W 122°18'2 3.6
2017-Aug-09 02:52N 47°58' W 122°21'2 6.6
2017-Aug-09 02:30N 47°57' W 122°18'2 3.8
2017-Aug-09 01:54N 47°58' W 122°21'2 6.0
2017-Aug-09 01:30N 47°57' W 122°18'2 4.6
2017-Aug-09 01:00N 47°58' W 122°21'2 3.9
2017-Aug-09 00:31N 47°57' W 122°19'1 1.0
2017-Aug-09 00:00N 47°58' W 122°19'1 2.7
2017-Aug-08 23:30N 47°58' W 122°21'2 4.2
2017-Aug-08 23:00N 47°57' W 122°18'2 4.6
2017-Aug-08 22:30N 47°58' W 122°21'2 4.6
2017-Aug-08 22:00N 47°57' W 122°18'2 4.1
2017-Aug-08 21:26N 47°58' W 122°21'2 5.4
2017-Aug-08 21:00N 47°57' W 122°18'2 3.4
2017-Aug-08 20:20N 47°58' W 122°21'2 7.2
2017-Aug-08 20:00N 47°57' W 122°18'2 3.3
2017-Aug-08 19:18N 47°58' W 122°21'2 7.9
2017-Aug-08 19:00N 47°57' W 122°18'2 3.9
2017-Aug-08 18:25N 47°58' W 122°21'2 5.7
2017-Aug-08 18:00N 47°57' W 122°18'2 3.2
2017-Aug-08 17:17N 47°58' W 122°21'2 8.2
2017-Aug-08 17:00N 47°57' W 122°18'2 4.1
2017-Aug-08 16:26N 47°58' W 122°21'2 5.4
2017-Aug-08 16:00N 47°57' W 122°18'2 4.4
2017-Aug-08 15:28N 47°58' W 122°21'2 5.0
2017-Aug-08 15:01N 47°57' W 122°18'2 2.8
2017-Aug-08 14:13N 47°58' W 122°21'210.1
2017-Aug-08 14:00N 47°57' W 122°18'2 3.2
2017-Aug-08 13:17N 47°58' W 122°21'2 8.1
2017-Aug-08 13:00N 47°57' W 122°18'2 3.4
2017-Aug-08 12:20N 47°58' W 122°21'2 6.9
2017-Aug-08 12:00N 47°57' W 122°18'2 1.1
2017-Aug-08 09:43N 47°59' W 122°21'0 0.0
2017-Aug-08 09:10N 47°59' W 122°21'0 0.0
2017-Aug-08 08:59N 47°59' W 122°21'0 0.0
2017-Aug-08 08:30N 47°59' W 122°21'0 0.0
2017-Aug-08 08:00N 47°59' W 122°21'0 0.0
2017-Aug-08 07:29N 47°59' W 122°21'0 0.0
2017-Aug-08 06:54N 47°59' W 122°21'0 0.0
2017-Aug-08 05:43N 47°59' W 122°21'0 0.2
2017-Aug-08 05:30N 47°59' W 122°21'0 0.1
2017-Aug-08 04:56N 47°59' W 122°21'0 0.1
2017-Aug-08 04:30N 47°59' W 122°21'0 0.1
2017-Aug-08 03:55N 47°59' W 122°21'2 6.0
2017-Aug-08 03:30N 47°57' W 122°18'2 3.3
2017-Aug-08 02:50N 47°58' W 122°21'2 6.9
2017-Aug-08 02:31N 47°57' W 122°18'2 4.6
2017-Aug-08 02:00N 47°58' W 122°21'2 4.7
2017-Aug-08 01:30N 47°57' W 122°18'2 4.6
2017-Aug-08 01:00N 47°58' W 122°21'2 4.7
2017-Aug-08 00:30N 47°57' W 122°18'2 3.9
2017-Aug-08 00:01N 47°58' W 122°20'1 1.6
2017-Aug-07 23:31N 47°58' W 122°20'1 2.3
2017-Aug-07 23:00N 47°57' W 122°18'2 3.9
2017-Aug-07 22:25N 47°58' W 122°21'2 5.7
2017-Aug-07 22:00N 47°57' W 122°18'2 3.6
2017-Aug-07 21:21N 47°58' W 122°21'2 6.8
2017-Aug-07 21:00N 47°57' W 122°18'2 3.0
2017-Aug-07 20:15N 47°58' W 122°21'2 9.0
2017-Aug-07 20:00N 47°57' W 122°18'2 4.5
2017-Aug-07 19:29N 47°58' W 122°21'2 4.8
2017-Aug-07 19:00N 47°57' W 122°18'2 4.6
2017-Aug-07 18:30N 47°58' W 122°21'2 4.7
2017-Aug-07 18:01N 47°57' W 122°18'2 4.5
2017-Aug-07 17:30N 47°58' W 122°21'2 4.7
2017-Aug-07 17:00N 47°57' W 122°18'2 4.5
2017-Aug-07 16:30N 47°58' W 122°21'2 4.8
2017-Aug-07 16:00N 47°57' W 122°18'2 4.6
2017-Aug-07 15:30N 47°58' W 122°21'2 4.6
2017-Aug-07 15:00N 47°57' W 122°18'2 4.6
2017-Aug-07 14:30N 47°58' W 122°21'2 4.7
2017-Aug-07 14:00N 47°57' W 122°18'2 4.6
2017-Aug-07 13:30N 47°58' W 122°21'2 4.7
2017-Aug-07 13:00N 47°57' W 122°18'2 4.6
2017-Aug-07 12:30N 47°58' W 122°21'2 4.7
2017-Aug-07 12:00N 47°57' W 122°18'2 4.5
2017-Aug-07 11:29N 47°58' W 122°21'0 0.0
2017-Aug-07 11:00N 47°58' W 122°21'0 0.0
2017-Aug-07 10:26N 47°58' W 122°21'0 0.0
2017-Aug-07 08:47N 47°58' W 122°21'0 0.0
2017-Aug-07 08:23N 47°58' W 122°21'2 6.1
2017-Aug-07 08:01N 47°57' W 122°18'2 4.6
2017-Aug-07 07:30N 47°58' W 122°21'2 4.7
2017-Aug-07 07:00N 47°57' W 122°18'2 4.6
2017-Aug-07 06:30N 47°58' W 122°21'2 4.6
2017-Aug-07 06:00N 47°57' W 122°18'2 4.5
2017-Aug-07 05:30N 47°58' W 122°21'2 4.7
2017-Aug-07 05:00N 47°57' W 122°18'2 4.2
2017-Aug-07 04:28N 47°58' W 122°21'2 5.1
2017-Aug-07 04:00N 47°57' W 122°18'2 3.6
2017-Aug-07 03:23N 47°58' W 122°21'2 5.9
2017-Aug-07 03:00N 47°57' W 122°18'2 3.5
2017-Aug-07 02:23N 47°58' W 122°21'2 6.0
2017-Aug-07 02:00N 47°57' W 122°18'2 3.7
2017-Aug-07 01:23N 47°58' W 122°21'2 6.2
2017-Aug-07 01:00N 47°57' W 122°18'2 3.8
2017-Aug-07 00:23N 47°58' W 122°21'2 6.1
2017-Aug-07 00:01N 47°57' W 122°18'2 2.9
2017-Aug-06 23:16N 47°58' W 122°21'2 8.1
2017-Aug-06 23:00N 47°57' W 122°18'2 3.6
2017-Aug-06 22:22N 47°58' W 122°21'2 6.4
2017-Aug-06 22:01N 47°57' W 122°18'2 4.6
2017-Aug-06 21:30N 47°58' W 122°21'  
Track history (hours):
 
Tides and Currents Weather Stations Pressure Air Temp Water Temp Dewpoint Dewpoint Depression Visibility Wind Speed Wind Dir Waves Ship Positions

Cathlamet

Owner: WASHINGTON, STATE OF; Dept. of Transportation, OLYMPIA, WA. More information available from US FCC via Universal Licensing System and Coast Guard Vessel Documentation Center.

Last reported at 2017-Aug-16 21:29 UTC. Time now 2017-Aug-16 21:51 UTC.
Position N 47°58' W 122°21'.

Length 100 m; draft 4.7 m.

Type: Passenger vessel. MMSI: 366773070.

Date/timePositionNaut miles runAvg speedWind from/ knotsBaromVisibWave heightAir tempDewpointWater temp
2017-Aug-16 21:29N 47°58' W 122°21'2 4.8
2017-Aug-16 21:00N 47°57' W 122°18'2 3.5
2017-Aug-16 20:21N 47°58' W 122°21'2 6.9
2017-Aug-16 20:00N 47°57' W 122°18'2 4.0
2017-Aug-16 19:26N 47°58' W 122°21'2 5.5
2017-Aug-16 19:00N 47°57' W 122°18'2 4.0
2017-Aug-16 18:25N 47°58' W 122°21'2 5.6
2017-Aug-16 18:00N 47°57' W 122°18'2 4.6
2017-Aug-16 17:30N 47°58' W 122°21'2 4.7
2017-Aug-16 17:01N 47°57' W 122°18'2 4.6
2017-Aug-16 16:30N 47°58' W 122°21'2 4.7
2017-Aug-16 16:00N 47°57' W 122°18'2 4.0
2017-Aug-16 15:25N 47°58' W 122°21'2 5.6
2017-Aug-16 15:00N 47°57' W 122°18'2 4.6
2017-Aug-16 14:30N 47°58' W 122°21'2 4.6
2017-Aug-16 14:00N 47°57' W 122°18'2 4.6
2017-Aug-16 13:30N 47°58' W 122°21'2 4.7
2017-Aug-16 13:00N 47°57' W 122°18'2 4.5
2017-Aug-16 12:30N 47°58' W 122°21'2 4.7
2017-Aug-16 12:00N 47°57' W 122°18'2 0.3
2017-Aug-16 04:23N 47°59' W 122°21'2 6.2
2017-Aug-16 04:00N 47°57' W 122°18'2 4.7
2017-Aug-16 03:30N 47°58' W 122°21'2 4.7
2017-Aug-16 03:01N 47°57' W 122°18'2 4.0
2017-Aug-16 02:30N 47°58' W 122°21'1 2.6
2017-Aug-16 02:00N 47°58' W 122°19'0 0.9
2017-Aug-16 01:30N 47°57' W 122°20'0 0.8
2017-Aug-16 01:00N 47°58' W 122°19'1 1.3
2017-Aug-16 00:30N 47°58' W 122°20'1 2.6
2017-Aug-16 00:01N 47°57' W 122°18'2 3.9
2017-Aug-15 23:30N 47°58' W 122°21'2 4.4
2017-Aug-15 23:00N 47°57' W 122°18'2 4.6
2017-Aug-15 22:30N 47°58' W 122°21'2 4.7
2017-Aug-15 22:00N 47°57' W 122°18'2 4.5
2017-Aug-15 21:30N 47°58' W 122°21'2 4.8
2017-Aug-15 21:00N 47°57' W 122°18'2 4.4
2017-Aug-15 20:29N 47°58' W 122°21'2 4.9
2017-Aug-15 20:00N 47°57' W 122°18'2 3.8
2017-Aug-15 19:23N 47°58' W 122°21'2 5.9
2017-Aug-15 19:00N 47°57' W 122°18'2 3.5
2017-Aug-15 18:20N 47°58' W 122°21'2 7.2
2017-Aug-15 18:00N 47°57' W 122°18'2 3.4
2017-Aug-15 17:19N 47°58' W 122°21'2 7.3
2017-Aug-15 17:00N 47°57' W 122°18'2 3.4
2017-Aug-15 16:20N 47°58' W 122°21'2 7.2
2017-Aug-15 16:00N 47°57' W 122°18'2 4.6
2017-Aug-15 15:30N 47°58' W 122°21'2 4.6
2017-Aug-15 15:00N 47°57' W 122°18'2 4.6
2017-Aug-15 14:30N 47°58' W 122°21'2 4.5
2017-Aug-15 14:00N 47°57' W 122°18'2 4.4
2017-Aug-15 13:30N 47°58' W 122°21'2 4.7
2017-Aug-15 13:00N 47°57' W 122°18'2 3.6
2017-Aug-15 12:22N 47°58' W 122°21'2 6.4
2017-Aug-15 12:00N 47°57' W 122°18'2 4.7
2017-Aug-15 11:30N 47°59' W 122°21'0 0.0
2017-Aug-15 06:58N 47°59' W 122°21'0 0.1
2017-Aug-15 06:13N 47°59' W 122°21'0 0.0
2017-Aug-15 06:00N 47°59' W 122°21'0 0.0
2017-Aug-15 05:30N 47°59' W 122°21'0 0.1
2017-Aug-15 03:58N 47°59' W 122°21'2 5.3
2017-Aug-15 03:30N 47°57' W 122°18'2 4.7
2017-Aug-15 03:00N 47°58' W 122°21'2 4.6
2017-Aug-15 02:30N 47°57' W 122°18'2 4.6
2017-Aug-15 02:00N 47°58' W 122°21'2 4.6
2017-Aug-15 01:30N 47°57' W 122°18'2 4.5
2017-Aug-15 01:00N 47°58' W 122°21'2 4.8
2017-Aug-15 00:30N 47°57' W 122°18'1 2.5
2017-Aug-15 00:00N 47°58' W 122°20'0 0.9
2017-Aug-14 23:30N 47°57' W 122°20'1 2.5
2017-Aug-14 23:01N 47°57' W 122°18'2 4.5
2017-Aug-14 22:30N 47°58' W 122°21'2 4.7
2017-Aug-14 22:00N 47°57' W 122°18'2 4.6
2017-Aug-14 21:30N 47°58' W 122°21'2 4.7
2017-Aug-14 21:00N 47°57' W 122°18'2 4.6
2017-Aug-14 20:30N 47°58' W 122°21'2 4.7
2017-Aug-14 20:00N 47°57' W 122°18'2 4.6
2017-Aug-14 19:31N 47°58' W 122°21'2 4.6
2017-Aug-14 19:01N 47°57' W 122°18'2 4.5
2017-Aug-14 18:30N 47°58' W 122°21'2 4.8
2017-Aug-14 18:00N 47°57' W 122°18'2 4.6
2017-Aug-14 17:31N 47°58' W 122°21'2 4.6
2017-Aug-14 17:00N 47°57' W 122°18'2 4.6
2017-Aug-14 16:30N 47°58' W 122°21'2 4.7
2017-Aug-14 16:01N 47°57' W 122°18'2 4.6
2017-Aug-14 15:30N 47°58' W 122°21'2 4.7
2017-Aug-14 15:00N 47°57' W 122°18'2 4.3
2017-Aug-14 14:28N 47°58' W 122°21'2 4.9
2017-Aug-14 14:00N 47°57' W 122°18'2 3.3
2017-Aug-14 13:19N 47°58' W 122°21'2 7.5
2017-Aug-14 13:00N 47°57' W 122°18'2 4.4
2017-Aug-14 12:29N 47°58' W 122°21'2 4.9
2017-Aug-14 12:00N 47°57' W 122°18'2 2.9
2017-Aug-14 11:13N 47°58' W 122°21'0 0.0
2017-Aug-14 11:00N 47°58' W 122°21'0 0.0
2017-Aug-14 10:30N 47°58' W 122°21'0 0.0
2017-Aug-14 10:00N 47°58' W 122°21'0 0.0
2017-Aug-14 09:27N 47°58' W 122°21'0 0.0
2017-Aug-14 08:53N 47°58' W 122°21'0 0.0
2017-Aug-14 08:26N 47°58' W 122°21'2 5.4
2017-Aug-14 08:00N 47°57' W 122°18'2 4.7
2017-Aug-14 07:30N 47°58' W 122°21'2 4.6
2017-Aug-14 07:00N 47°57' W 122°18'2 4.2
2017-Aug-14 06:28N 47°58' W 122°21'2 5.0
2017-Aug-14 06:00N 47°57' W 122°18'2 4.5
2017-Aug-14 05:30N 47°58' W 122°21'2 4.7
2017-Aug-14 05:00N 47°57' W 122°18'2 4.5
2017-Aug-14 04:29N 47°58' W 122°21'2 4.8
2017-Aug-14 04:01N 47°57' W 122°18'2 4.4
2017-Aug-14 03:29N 47°58' W 122°21'2 4.9
2017-Aug-14 03:01N 47°57' W 122°18'2 4.6
2017-Aug-14 02:30N 47°58' W 122°21'2 4.7
2017-Aug-14 02:00N 47°57' W 122°18'2 4.2
2017-Aug-14 01:27N 47°58' W 122°21'2 5.2
2017-Aug-14 01:00N 47°57' W 122°18'2 4.3
2017-Aug-14 00:28N 47°58' W 122°21'2 5.1
2017-Aug-14 00:01N 47°57' W 122°18'2 3.9
2017-Aug-13 23:24N 47°58' W 122°21'2 5.8
2017-Aug-13 23:00N 47°57' W 122°18'2 4.5
2017-Aug-13 22:29N 47°58' W 122°21'2 4.8
2017-Aug-13 22:00N 47°57' W 122°18'2 4.7
2017-Aug-13 21:30N 47°58' W 122°21'2 4.6
2017-Aug-13 21:00N 47°57' W 122°18'2 4.6
2017-Aug-13 20:30N 47°58' W 122°21'2 4.6
2017-Aug-13 19:59N 47°57' W 122°18'2 4.8
2017-Aug-13 19:30N 47°58' W 122°21'2 4.7
2017-Aug-13 19:00N 47°57' W 122°18'2 4.7
2017-Aug-13 18:31N 47°58' W 122°21'2 4.6
2017-Aug-13 18:00N 47°57' W 122°18'2 4.7
2017-Aug-13 17:30N 47°58' W 122°21'2 4.7
2017-Aug-13 17:00N 47°57' W 122°18'2 4.6
2017-Aug-13 16:30N 47°58' W 122°21'2 4.7
2017-Aug-13 16:00N 47°57' W 122°18'2 4.6
2017-Aug-13 15:30N 47°58' W 122°21'2 4.6
2017-Aug-13 15:00N 47°57' W 122°18'2 4.6
2017-Aug-13 14:30N 47°58' W 122°21'2 4.6
2017-Aug-13 14:00N 47°57' W 122°18'2 4.5
2017-Aug-13 13:30N 47°58' W 122°21'2 4.7
2017-Aug-13 13:00N 47°57' W 122°18'2 4.6
2017-Aug-13 12:30N 47°58' W 122°21'0 0.0
2017-Aug-13 12:00N 47°58' W 122°21'0 0.0
2017-Aug-13 11:26N 47°58' W 122°21'0 0.0
2017-Aug-13 10:59N 47°58' W 122°21'0 0.0
2017-Aug-13 09:16N 47°58' W 122°21'2 8.8
2017-Aug-13 09:01N 47°57' W 122°18'2 4.4
2017-Aug-13 08:30N 47°58' W 122°21'2 4.7
2017-Aug-13 08:00N 47°57' W 122°18'2 4.7
2017-Aug-13 07:31N 47°58' W 122°21'2 4.6
2017-Aug-13 07:00N 47°57' W 122°18'2 4.6
2017-Aug-13 06:30N 47°58' W 122°21'2 4.7
2017-Aug-13 06:00N 47°57' W 122°18'2 4.4
2017-Aug-13 05:29N 47°58' W 122°21'2 4.9
2017-Aug-13 05:00N 47°57' W 122°18'2 4.7
2017-Aug-13 04:31N 47°58' W 122°21'2 4.6
2017-Aug-13 04:00N 47°57' W 122°18'2 4.4
2017-Aug-13 03:30N 47°58' W 122°21'2 4.4
2017-Aug-13 03:01N 47°57' W 122°18'2 3.9
2017-Aug-13 02:30N 47°58' W 122°21'1 2.7
2017-Aug-13 02:00N 47°58' W 122°19'1 2.8
2017-Aug-13 01:30N 47°58' W 122°21'2 4.0
2017-Aug-13 01:00N 47°57' W 122°18'2 4.4
2017-Aug-13 00:30N 47°58' W 122°21'2 4.6
2017-Aug-13 00:01N 47°57' W 122°18'2 4.6
2017-Aug-12 23:30N 47°58' W 122°21'2 4.6
2017-Aug-12 23:00N 47°57' W 122°18'2 4.6
2017-Aug-12 22:30N 47°58' W 122°21'2 4.7
2017-Aug-12 22:00N 47°57' W 122°18'2 4.6
2017-Aug-12 21:30N 47°58' W 122°21'2 4.7
2017-Aug-12 21:00N 47°57' W 122°18'2 4.6
2017-Aug-12 20:30N 47°58' W 122°21'2 4.7
2017-Aug-12 20:00N 47°57' W 122°18'2 4.6
2017-Aug-12 19:30N 47°58' W 122°21'2 4.6
2017-Aug-12 19:00N 47°57' W 122°18'2 4.7
2017-Aug-12 18:31N 47°58' W 122°21'2 4.6
2017-Aug-12 18:00N 47°57' W 122°18'2 4.6
2017-Aug-12 17:30N 47°58' W 122°21'2 4.7
2017-Aug-12 17:00N 47°57' W 122°18'2 4.6
2017-Aug-12 16:30N 47°58' W 122°21'2 4.7
2017-Aug-12 16:01N 47°57' W 122°18'2 4.6
2017-Aug-12 15:30N 47°58' W 122°21'2 4.6
2017-Aug-12 15:00N 47°57' W 122°18'2 4.7
2017-Aug-12 14:30N 47°58' W 122°21'2 4.5
2017-Aug-12 14:00N 47°57' W 122°18'2 4.5
2017-Aug-12 13:30N 47°58' W 122°21'2 4.7
2017-Aug-12 13:01N 47°57' W 122°18'2 4.5
2017-Aug-12 12:30N 47°58' W 122°21'0 0.0
2017-Aug-12 11:56N 47°58' W 122°21'0 0.0
2017-Aug-12 09:28N 47°58' W 122°21'2 5.0
2017-Aug-12 09:00N 47°57' W 122°18'2 4.5
2017-Aug-12 08:30N 47°58' W 122°21'2 4.8
2017-Aug-12 08:00N 47°57' W 122°18'2 4.6
2017-Aug-12 07:30N 47°58' W 122°21'0 0.0
2017-Aug-12 07:00N 47°58' W 122°21'2 4.7
2017-Aug-12 06:30N 47°57' W 122°18'2 4.6
2017-Aug-12 06:00N 47°58' W 122°21'2 4.7
2017-Aug-12 05:30N 47°57' W 122°18'2 4.3
2017-Aug-12 04:59N 47°58' W 122°21'2 4.7
2017-Aug-12 04:30N 47°57' W 122°18'2 4.2
2017-Aug-12 03:57N 47°58' W 122°21'2 5.1
2017-Aug-12 03:30N 47°57' W 122°18'2 4.0
2017-Aug-12 02:56N 47°58' W 122°21'2 5.5
2017-Aug-12 02:31N 47°57' W 122°18'2 4.6
2017-Aug-12 02:01N 47°58' W 122°21'2 4.6
2017-Aug-12 01:30N 47°57' W 122°18'2 4.4
2017-Aug-12 00:59N 47°58' W 122°21'2 4.9
2017-Aug-12 00:30N 47°57' W 122°18'2 3.1
2017-Aug-11 23:46N 47°58' W 122°21'2 9.3
2017-Aug-11 23:30N 47°57' W 122°18'2 4.5
2017-Aug-11 23:00N 47°58' W 122°21'0 0.1
2017-Aug-11 22:30N 47°58' W 122°21'2 4.7
2017-Aug-11 22:00N 47°57' W 122°18'2 4.6
2017-Aug-11 21:30N 47°58' W 122°21'2 4.7
2017-Aug-11 21:00N 47°57' W 122°18'2 4.7
2017-Aug-11 20:31N 47°58' W 122°21'2 4.6
2017-Aug-11 20:00N 47°57' W 122°18'2 4.6
2017-Aug-11 19:30N 47°58' W 122°21'2 4.6
2017-Aug-11 19:00N 47°57' W 122°18'2 4.6
2017-Aug-11 18:30N 47°58' W 122°21'2 4.7
2017-Aug-11 18:00N 47°57' W 122°18'2 4.5
2017-Aug-11 17:30N 47°58' W 122°21'2 4.8
2017-Aug-11 17:00N 47°57' W 122°18'2 4.0
2017-Aug-11 16:26N 47°58' W 122°21'2 5.5
2017-Aug-11 16:00N 47°57' W 122°18'2 3.9
2017-Aug-11 15:25N 47°58' W 122°21'2 5.5
2017-Aug-11 15:00N 47°57' W 122°18'2 4.4
2017-Aug-11 14:28N 47°58' W 122°21'0 0.0
2017-Aug-11 13:30N 47°58' W 122°21'2 4.7
2017-Aug-11 13:01N 47°57' W 122°18'2 4.6
2017-Aug-11 12:30N 47°58' W 122°21'2 4.6
2017-Aug-11 12:00N 47°57' W 122°18'2 3.5
2017-Aug-11 11:19N 47°59' W 122°21'0 0.0
2017-Aug-11 10:48N 47°59' W 122°21'0 0.0
2017-Aug-11 10:30N 47°59' W 122°21'0 0.0
2017-Aug-11 09:59N 47°59' W 122°21'0 0.0
2017-Aug-11 08:32N 47°59' W 122°21'0 0.0
2017-Aug-11 08:30N 47°59' W 122°21'0 0.1
2017-Aug-11 08:00N 47°59' W 122°21'0 0.1
2017-Aug-11 07:30N 47°59' W 122°21'0 0.0
2017-Aug-11 06:19N 47°59' W 122°21'0 1.6
2017-Aug-11 06:00N 47°59' W 122°21'1 1.4
2017-Aug-11 05:30N 47°58' W 122°21'2 4.0
2017-Aug-11 05:00N 47°57' W 122°18'2 4.3
2017-Aug-11 04:30N 47°58' W 122°21'2 4.3
2017-Aug-11 04:00N 47°57' W 122°18'2 3.0
2017-Aug-11 03:17N 47°58' W 122°21'2 7.6
2017-Aug-11 03:00N 47°57' W 122°18'1 2.6
2017-Aug-11 02:30N 47°58' W 122°20'0 0.8
2017-Aug-11 02:00N 47°58' W 122°20'1 2.5
2017-Aug-11 01:30N 47°57' W 122°18'2 2.9
2017-Aug-11 00:53N 47°58' W 122°21'2 4.9
2017-Aug-11 00:30N 47°57' W 122°18'2 3.8
2017-Aug-10 23:53N 47°58' W 122°21'2 6.2
2017-Aug-10 23:30N 47°57' W 122°18'1 1.2
2017-Aug-10 23:00N 47°58' W 122°19'1 2.5
2017-Aug-10 22:29N 47°58' W 122°21'2 3.7
2017-Aug-10 22:00N 47°57' W 122°18'2 4.1
2017-Aug-10 21:27N 47°58' W 122°21'2 5.3
2017-Aug-10 21:00N 47°57' W 122°18'2 4.6
2017-Aug-10 20:30N 47°58' W 122°21'2 4.7
2017-Aug-10 20:00N 47°57' W 122°18'2 3.9
2017-Aug-10 19:25N 47°58' W 122°21'2 5.6
2017-Aug-10 19:00N 47°57' W 122°18'2 3.2
2017-Aug-10 18:16N 47°58' W 122°21'2 9.0
2017-Aug-10 18:00N 47°57' W 122°18'2 3.5
2017-Aug-10 17:21N 47°58' W 122°21'2 6.9
2017-Aug-10 17:00N 47°57' W 122°18'2 3.1
2017-Aug-10 16:16N 47°58' W 122°21'2 9.2
2017-Aug-10 16:01N 47°57' W 122°18'2 3.5
2017-Aug-10 15:21N 47°58' W 122°21'2 6.7
2017-Aug-10 15:00N 47°57' W 122°18'2 3.2
2017-Aug-10 14:18N 47°58' W 122°21'0 0.0
2017-Aug-10 13:17N 47°58' W 122°21'2 8.2
2017-Aug-10 13:00N 47°57' W 122°18'2 3.4
2017-Aug-10 12:21N 47°58' W 122°21'2 6.9
2017-Aug-10 12:00N 47°57' W 122°18'2 4.6
2017-Aug-10 11:30N 47°58' W 122°21'0 0.0
2017-Aug-10 10:53N 47°58' W 122°21'0 0.0
2017-Aug-10 10:04N 47°58' W 122°21'0 0.0
2017-Aug-10 09:57N 47°58' W 122°21'0 0.0
2017-Aug-10 09:28N 47°58' W 122°21'0 0.0
2017-Aug-10 08:47N 47°58' W 122°21'0 0.0
2017-Aug-10 08:22N 47°58' W 122°21'2 6.5
2017-Aug-10 08:01N 47°57' W 122°18'2 3.9
2017-Aug-10 07:25N 47°58' W 122°21'2 5.6
2017-Aug-10 07:00N 47°57' W 122°18'2 4.4
2017-Aug-10 06:30N 47°58' W 122°21'2 4.8
2017-Aug-10 06:00N 47°57' W 122°18'2 4.6
2017-Aug-10 05:30N 47°58' W 122°21'2 4.6
2017-Aug-10 05:00N 47°57' W 122°18'2 3.9
2017-Aug-10 04:25N 47°58' W 122°21'0 0.0
2017-Aug-10 04:00N 47°58' W 122°21'2 4.7
2017-Aug-10 03:30N 47°57' W 122°18'1 1.0
2017-Aug-10 03:00N 47°57' W 122°19'0 0.7
2017-Aug-10 02:30N 47°57' W 122°19'0 0.8
2017-Aug-10 02:00N 47°58' W 122°19'2 3.0
2017-Aug-10 01:30N 47°58' W 122°21'2 4.1
2017-Aug-10 01:01N 47°57' W 122°18'2 4.4
2017-Aug-10 00:29N 47°58' W 122°21'2 4.9
2017-Aug-10 00:00N 47°57' W 122°18'2 3.8
2017-Aug-09 23:24N 47°58' W 122°21'2 5.6
2017-Aug-09 22:59N 47°57' W 122°18'2 4.2
2017-Aug-09 22:26N 47°58' W 122°21'2 5.5
2017-Aug-09 22:00N 47°57' W 122°18'2 4.6
2017-Aug-09 21:30N 47°58' W 122°21'2 4.7
2017-Aug-09 21:00N 47°57' W 122°18'2 4.6
2017-Aug-09 20:30N 47°58' W 122°21'2 4.7
2017-Aug-09 20:00N 47°57' W 122°18'2 4.6
2017-Aug-09 19:30N 47°58' W 122°21'2 4.6
2017-Aug-09 19:00N 47°57' W 122°18'2 4.6
2017-Aug-09 18:30N 47°58' W 122°21'2 4.7
2017-Aug-09 18:00N 47°57' W 122°18'2 4.4
2017-Aug-09 17:29N 47°58' W 122°21'2 4.9
2017-Aug-09 17:00N 47°57' W 122°18'2 3.3
2017-Aug-09 16:18N 47°58' W 122°21'2 7.9
2017-Aug-09 16:00N 47°57' W 122°18'2 4.1
2017-Aug-09 15:26N 47°58' W 122°21'2 5.3
2017-Aug-09 15:00N 47°57' W 122°18'2 3.1
2017-Aug-09 14:16N 47°58' W 122°21'2 8.6
2017-Aug-09 14:00N 47°57' W 122°18'2 3.1
2017-Aug-09 13:17N 47°58' W 122°21'2 8.3
2017-Aug-09 13:00N 47°57' W 122°18'2 3.5
2017-Aug-09 12:21N 47°58' W 122°21'2 6.6
2017-Aug-09 12:00N 47°57' W 122°18'2 3.8
2017-Aug-09 11:23N 47°59' W 122°21'0 0.0
2017-Aug-09 10:47N 47°59' W 122°21'0 0.0
2017-Aug-09 10:29N 47°59' W 122°21'0 0.0
2017-Aug-09 10:00N 47°59' W 122°21'0 0.0
2017-Aug-09 09:30N 47°59' W 122°21'0 0.0
2017-Aug-09 08:56N 47°59' W 122°21'0 0.0
2017-Aug-09 08:30N 47°59' W 122°21'0 0.0
2017-Aug-09 08:00N 47°59' W 122°21'0 0.0
2017-Aug-09 05:33N 47°59' W 122°21'0 0.8
2017-Aug-09 05:30N 47°59' W 122°21'0 0.0
2017-Aug-09 04:02N 47°59' W 122°21'0 0.5
2017-Aug-09 04:00N 47°59' W 122°21'2 4.9
2017-Aug-09 03:30N 47°57' W 122°18'2 3.6
2017-Aug-09 02:52N 47°58' W 122°21'2 6.6
2017-Aug-09 02:30N 47°57' W 122°18'2 3.8
2017-Aug-09 01:54N 47°58' W 122°21'2 6.0
2017-Aug-09 01:30N 47°57' W 122°18'2 4.6
2017-Aug-09 01:00N 47°58' W 122°21'2 3.9
2017-Aug-09 00:31N 47°57' W 122°19'1 1.0
2017-Aug-09 00:00N 47°58' W 122°19'1 2.7
2017-Aug-08 23:30N 47°58' W 122°21'2 4.2
2017-Aug-08 23:00N 47°57' W 122°18'2 4.6
2017-Aug-08 22:30N 47°58' W 122°21'2 4.6
2017-Aug-08 22:00N 47°57' W 122°18'2 4.1
2017-Aug-08 21:26N 47°58' W 122°21'2 5.4
2017-Aug-08 21:00N 47°57' W 122°18'2 3.4
2017-Aug-08 20:20N 47°58' W 122°21'2 7.2
2017-Aug-08 20:00N 47°57' W 122°18'2 3.3
2017-Aug-08 19:18N 47°58' W 122°21'2 7.9
2017-Aug-08 19:00N 47°57' W 122°18'2 3.9
2017-Aug-08 18:25N 47°58' W 122°21'2 5.7
2017-Aug-08 18:00N 47°57' W 122°18'2 3.2
2017-Aug-08 17:17N 47°58' W 122°21'2 8.2
2017-Aug-08 17:00N 47°57' W 122°18'2 4.1
2017-Aug-08 16:26N 47°58' W 122°21'2 5.4
2017-Aug-08 16:00N 47°57' W 122°18'2 4.4
2017-Aug-08 15:28N 47°58' W 122°21'2 5.0
2017-Aug-08 15:01N 47°57' W 122°18'2 2.8
2017-Aug-08 14:13N 47°58' W 122°21'210.1
2017-Aug-08 14:00N 47°57' W 122°18'2 3.2
2017-Aug-08 13:17N 47°58' W 122°21'2 8.1
2017-Aug-08 13:00N 47°57' W 122°18'2 3.4
2017-Aug-08 12:20N 47°58' W 122°21'2 6.9
2017-Aug-08 12:00N 47°57' W 122°18'2 1.1
2017-Aug-08 09:43N 47°59' W 122°21'0 0.0
2017-Aug-08 09:10N 47°59' W 122°21'0 0.0
2017-Aug-08 08:59N 47°59' W 122°21'0 0.0
2017-Aug-08 08:30N 47°59' W 122°21'0 0.0
2017-Aug-08 08:00N 47°59' W 122°21'0 0.0
2017-Aug-08 07:29N 47°59' W 122°21'0 0.0
2017-Aug-08 06:54N 47°59' W 122°21'0 0.0
2017-Aug-08 05:43N 47°59' W 122°21'0 0.2
2017-Aug-08 05:30N 47°59' W 122°21'0 0.1
2017-Aug-08 04:56N 47°59' W 122°21'0 0.1
2017-Aug-08 04:30N 47°59' W 122°21'0 0.1
2017-Aug-08 03:55N 47°59' W 122°21'2 6.0
2017-Aug-08 03:30N 47°57' W 122°18'2 3.3
2017-Aug-08 02:50N 47°58' W 122°21'2 6.9
2017-Aug-08 02:31N 47°57' W 122°18'2 4.6
2017-Aug-08 02:00N 47°58' W 122°21'2 4.7
2017-Aug-08 01:30N 47°57' W 122°18'2 4.6
2017-Aug-08 01:00N 47°58' W 122°21'2 4.7
2017-Aug-08 00:30N 47°57' W 122°18'2 3.9
2017-Aug-08 00:01N 47°58' W 122°20'1 1.6
2017-Aug-07 23:31N 47°58' W 122°20'1 2.3
2017-Aug-07 23:00N 47°57' W 122°18'2 3.9
2017-Aug-07 22:25N 47°58' W 122°21'2 5.7
2017-Aug-07 22:00N 47°57' W 122°18'2 3.6
2017-Aug-07 21:21N 47°58' W 122°21'2 6.8
2017-Aug-07 21:00N 47°57' W 122°18'2 3.0
2017-Aug-07 20:15N 47°58' W 122°21'2 9.0
2017-Aug-07 20:00N 47°57' W 122°18'2 4.5
2017-Aug-07 19:29N 47°58' W 122°21'2 4.8
2017-Aug-07 19:00N 47°57' W 122°18'2 4.6
2017-Aug-07 18:30N 47°58' W 122°21'2 4.7
2017-Aug-07 18:01N 47°57' W 122°18'2 4.5
2017-Aug-07 17:30N 47°58' W 122°21'2 4.7
2017-Aug-07 17:00N 47°57' W 122°18'2 4.5
2017-Aug-07 16:30N 47°58' W 122°21'2 4.8
2017-Aug-07 16:00N 47°57' W 122°18'2 4.6
2017-Aug-07 15:30N 47°58' W 122°21'2 4.6
2017-Aug-07 15:00N 47°57' W 122°18'2 4.6
2017-Aug-07 14:30N 47°58' W 122°21'2 4.7
2017-Aug-07 14:00N 47°57' W 122°18'2 4.6
2017-Aug-07 13:30N 47°58' W 122°21'2 4.7
2017-Aug-07 13:00N 47°57' W 122°18'2 4.6
2017-Aug-07 12:30N 47°58' W 122°21'2 4.7
2017-Aug-07 12:00N 47°57' W 122°18'2 4.5
2017-Aug-07 11:29N 47°58' W 122°21'0 0.0
2017-Aug-07 11:00N 47°58' W 122°21'0 0.0
2017-Aug-07 10:26N 47°58' W 122°21'0 0.0
2017-Aug-07 08:47N 47°58' W 122°21'0 0.0
2017-Aug-07 08:23N 47°58' W 122°21'2 6.1
2017-Aug-07 08:01N 47°57' W 122°18'2 4.6
2017-Aug-07 07:30N 47°58' W 122°21'2 4.7
2017-Aug-07 07:00N 47°57' W 122°18'2 4.6
2017-Aug-07 06:30N 47°58' W 122°21'2 4.6
2017-Aug-07 06:00N 47°57' W 122°18'2 4.5
2017-Aug-07 05:30N 47°58' W 122°21'2 4.7
2017-Aug-07 05:00N 47°57' W 122°18'2 4.2
2017-Aug-07 04:28N 47°58' W 122°21'2 5.1
2017-Aug-07 04:00N 47°57' W 122°18'2 3.6
2017-Aug-07 03:23N 47°58' W 122°21'2 5.9
2017-Aug-07 03:00N 47°57' W 122°18'2 3.5
2017-Aug-07 02:23N 47°58' W 122°21'2 6.0
2017-Aug-07 02:00N 47°57' W 122°18'2 3.7
2017-Aug-07 01:23N 47°58' W 122°21'2 6.2
2017-Aug-07 01:00N 47°57' W 122°18'2 3.8
2017-Aug-07 00:23N 47°58' W 122°21'2 6.1
2017-Aug-07 00:01N 47°57' W 122°18'2 2.9
2017-Aug-06 23:16N 47°58' W 122°21'2 8.1
2017-Aug-06 23:00N 47°57' W 122°18'2 3.6
2017-Aug-06 22:22N 47°58' W 122°21'2 6.4
2017-Aug-06 22:01N 47°57' W 122°18'2 4.6
2017-Aug-06 21:30N 47°58' W 122°21'  

Dump ship's entire track history